createdAt,value
2022-08-20T00:02:21.243Z,6.60
2022-08-20T00:05:08.701Z,6.95
2022-08-20T00:07:56.394Z,8.85
2022-08-20T00:10:47.667Z,8.75
2022-08-20T00:13:41.401Z,7.08
2022-08-20T00:16:32.283Z,6.03
2022-08-20T00:19:19.571Z,8.85
2022-08-20T00:22:07.071Z,11.33
2022-08-20T00:24:54.540Z,7.03
2022-08-20T00:27:41.903Z,6.72
2022-08-20T00:30:29.722Z,5.55
2022-08-20T00:33:19.967Z,6.60
2022-08-20T00:36:10.626Z,4.95
2022-08-20T00:38:57.886Z,10.48
2022-08-20T00:41:46.149Z,11.25
2022-08-20T00:44:33.938Z,5.55
2022-08-20T00:47:21.510Z,7.92
2022-08-20T00:50:11.649Z,7.42
2022-08-20T00:53:02.667Z,9.50
2022-08-20T00:55:49.908Z,9.10
2022-08-20T00:58:39.978Z,7.33
2022-08-20T01:01:27.594Z,6.25
2022-08-20T01:04:15.416Z,4.90
2022-08-20T01:07:05.246Z,6.60
2022-08-20T01:09:58.939Z,5.85
2022-08-20T01:12:45.791Z,7.40
2022-08-20T01:15:33.335Z,6.42
2022-08-20T01:18:24.970Z,6.85
2022-08-20T01:21:12.875Z,6.67
2022-08-20T01:24:09.398Z,7.60
2022-08-20T01:26:57.691Z,6.17
2022-08-20T01:29:44.881Z,5.87
2022-08-20T01:32:32.139Z,6.22
2022-08-20T01:35:22.756Z,7.37
2022-08-20T01:38:11.260Z,7.42
2022-08-20T01:41:28.208Z,5.22
2022-08-20T01:44:18.551Z,7.60
2022-08-20T01:47:16.047Z,5.62
2022-08-20T01:50:06.550Z,4.80
2022-08-20T01:52:59.744Z,7.15
2022-08-20T01:55:47.424Z,5.60
2022-08-20T01:58:37.868Z,6.20
2022-08-20T02:01:28.238Z,4.40
2022-08-20T02:04:18.112Z,5.50
2022-08-20T02:07:08.300Z,6.22
2022-08-20T02:09:55.616Z,6.72
2022-08-20T02:12:43.010Z,6.08
2022-08-20T02:15:49.690Z,4.28
2022-08-20T02:18:37.374Z,5.60
2022-08-20T02:21:28.149Z,5.15
2022-08-20T02:24:16.265Z,6.55
2022-08-20T02:27:03.886Z,7.17
2022-08-20T02:29:52.548Z,5.35
2022-08-20T02:32:41.101Z,7.17
2022-08-20T02:35:29.238Z,4.47
2022-08-20T02:38:17.387Z,4.95
2022-08-20T02:41:04.692Z,10.10
2022-08-20T02:43:52.247Z,6.70
2022-08-20T02:46:39.828Z,6.55
2022-08-20T02:49:28.535Z,9.50
2022-08-20T02:52:16.088Z,5.15
2022-08-20T02:55:03.325Z,6.65
2022-08-20T02:57:50.857Z,6.87
2022-08-20T03:00:39.933Z,7.12
2022-08-20T03:03:27.593Z,8.58
2022-08-20T03:06:16.061Z,6.62
2022-08-20T03:09:05.111Z,5.83
2022-08-20T03:11:52.959Z,7.53
2022-08-20T03:14:40.174Z,6.78
2022-08-20T03:17:27.784Z,4.12
2022-08-20T03:20:15.799Z,5.30
2022-08-20T03:23:03.547Z,6.95
2022-08-20T03:25:51.061Z,5.62
2022-08-20T03:28:39.458Z,7.42
2022-08-20T03:31:26.912Z,6.17
2022-08-20T03:34:14.578Z,7.47
2022-08-20T03:37:03.715Z,4.75
2022-08-20T03:39:51.335Z,9.70
2022-08-20T03:42:39.879Z,7.47
2022-08-20T03:45:29.353Z,6.35
2022-08-20T03:48:19.916Z,6.40
2022-08-20T03:51:07.565Z,6.78
2022-08-20T03:53:55.157Z,7.75
2022-08-20T03:56:42.504Z,8.35
2022-08-20T03:59:33.308Z,6.37
2022-08-20T04:02:20.985Z,8.90
2022-08-20T04:05:10.140Z,5.87
2022-08-20T04:08:03.221Z,8.48
2022-08-20T04:10:51.566Z,9.68
2022-08-20T04:13:42.653Z,8.55
2022-08-20T04:16:28.180Z,10.58
2022-08-20T04:19:15.889Z,8.15
2022-08-20T04:22:03.714Z,8.33
2022-08-20T04:24:50.995Z,8.28
2022-08-20T04:27:39.742Z,7.95
2022-08-20T04:30:28.061Z,11.50
2022-08-20T04:33:16.322Z,8.85
2022-08-20T04:36:06.510Z,5.97
2022-08-20T04:38:54.171Z,8.93
2022-08-20T04:41:42.745Z,6.72
2022-08-20T04:44:30.072Z,6.60
2022-08-20T04:47:26.812Z,8.60
2022-08-20T04:50:12.636Z,8.38
2022-08-20T04:52:59.720Z,7.20
2022-08-20T04:55:48.481Z,11.15
2022-08-20T04:58:38.682Z,9.00
2022-08-20T05:01:26.851Z,8.08
2022-08-20T05:04:14.602Z,8.68
2022-08-20T05:07:02.050Z,8.10
2022-08-20T05:09:49.113Z,9.25
2022-08-20T05:12:36.628Z,10.85
2022-08-20T05:15:25.857Z,9.95
2022-08-20T05:18:14.246Z,12.28
2022-08-20T05:21:06.225Z,13.58
2022-08-20T05:23:53.963Z,19.48
2022-08-20T05:26:42.167Z,24.05
2022-08-20T05:29:29.806Z,22.80
2022-08-20T05:32:17.205Z,26.25
2022-08-20T05:35:07.821Z,25.52
2022-08-20T05:37:55.525Z,23.62
2022-08-20T05:40:43.609Z,22.40
2022-08-20T05:43:32.619Z,24.40
2022-08-20T05:46:20.328Z,21.40
2022-08-20T05:49:12.022Z,20.10
2022-08-20T05:51:59.578Z,19.62
2022-08-20T05:54:47.358Z,21.15
2022-08-20T05:57:34.789Z,19.90
2022-08-20T06:00:22.160Z,21.82
2022-08-20T06:03:27.517Z,19.45
2022-08-20T06:06:21.659Z,19.73
2022-08-20T06:09:04.566Z,21.35
2022-08-20T06:11:52.314Z,21.37
2022-08-20T06:14:40.080Z,21.40
2022-08-20T06:17:29.347Z,20.75
2022-08-20T06:20:18.379Z,19.95
2022-08-20T06:23:06.675Z,17.87
2022-08-20T06:25:54.450Z,15.00
2022-08-20T06:28:41.980Z,17.85
2022-08-20T06:31:29.943Z,13.50
2022-08-20T06:34:18.583Z,15.35
2022-08-20T06:37:18.056Z,14.05
2022-08-20T06:40:12.185Z,14.35
2022-08-20T06:42:59.323Z,13.65
2022-08-20T06:45:46.852Z,13.45
2022-08-20T06:48:35.945Z,12.37
2022-08-20T06:51:23.482Z,14.00
2022-08-20T06:54:10.880Z,11.90
2022-08-20T06:56:58.054Z,13.58
2022-08-20T06:59:45.498Z,12.30
2022-08-20T07:02:35.813Z,14.47
2022-08-20T07:05:23.377Z,12.20
2022-08-20T07:08:18.012Z,12.00
2022-08-20T07:11:05.457Z,12.95
2022-08-20T07:13:52.690Z,14.47
2022-08-20T07:16:40.422Z,12.98
2022-08-20T07:19:28.070Z,17.00
2022-08-20T07:22:15.240Z,12.18
2022-08-20T07:25:02.975Z,12.47
2022-08-20T07:27:51.117Z,11.33
2022-08-20T07:30:57.807Z,11.03
2022-08-20T07:33:46.057Z,11.15
2022-08-20T07:36:34.021Z,11.35
2022-08-20T07:39:21.667Z,9.45
2022-08-20T07:42:10.118Z,11.03
2022-08-20T07:44:57.838Z,9.43
2022-08-20T07:47:46.463Z,9.50
2022-08-20T07:50:33.959Z,8.28
2022-08-20T07:53:21.636Z,6.75
2022-08-20T07:56:12.820Z,5.97
2022-08-20T07:59:01.499Z,6.35
2022-08-20T08:01:49.107Z,6.10
2022-08-20T08:04:37.134Z,7.20
2022-08-20T08:07:25.313Z,6.90
2022-08-20T08:10:15.779Z,7.60
2022-08-20T08:13:06.247Z,9.38
2022-08-20T08:15:57.601Z,6.78
2022-08-20T08:18:49.709Z,5.47
2022-08-20T08:21:37.290Z,5.80
2022-08-20T08:24:28.344Z,10.05
2022-08-20T08:27:18.573Z,7.62
2022-08-20T08:30:08.060Z,6.95
2022-08-20T08:33:14.067Z,9.73
2022-08-20T08:36:11.042Z,7.22
2022-08-20T08:38:58.487Z,4.72
2022-08-20T08:41:50.038Z,5.37
2022-08-20T08:44:40.308Z,5.35
2022-08-20T08:47:30.794Z,4.80
2022-08-20T08:50:43.869Z,4.83
2022-08-20T08:53:16.304Z,5.87
2022-08-20T08:56:04.866Z,4.72
2022-08-20T08:58:52.040Z,4.40
2022-08-20T09:01:55.424Z,4.67
2022-08-20T09:04:41.040Z,4.60
2022-08-20T09:07:31.335Z,5.92
2022-08-20T09:10:22.947Z,4.10
2022-08-20T09:13:09.013Z,5.83
2022-08-20T09:15:56.815Z,4.83
2022-08-20T09:18:44.577Z,4.10
2022-08-20T09:21:31.847Z,4.22
2022-08-20T09:24:19.164Z,3.80
2022-08-20T09:27:07.078Z,3.60
2022-08-20T09:29:54.409Z,2.77
2022-08-20T09:32:43.052Z,2.27
2022-08-20T09:35:30.740Z,4.08
2022-08-20T09:38:18.273Z,5.67
2022-08-20T09:41:05.719Z,4.20
2022-08-20T09:43:53.357Z,2.22
2022-08-20T09:46:41.152Z,1.57
2022-08-20T09:49:28.703Z,2.27
2022-08-20T09:52:27.885Z,1.98
2022-08-20T09:55:27.308Z,1.98
2022-08-20T09:58:29.969Z,2.15
2022-08-20T10:01:20.329Z,2.10
2022-08-20T10:04:08.030Z,2.10
2022-08-20T10:06:55.882Z,1.87
2022-08-20T10:09:42.974Z,2.85
2022-08-20T10:12:30.502Z,2.55
2022-08-20T10:15:18.100Z,1.65
2022-08-20T10:18:07.735Z,1.70
2022-08-20T10:20:55.348Z,1.95
2022-08-20T10:23:43.226Z,1.37
2022-08-20T10:26:30.897Z,1.80
2022-08-20T10:29:18.331Z,1.47
2022-08-20T10:32:15.229Z,1.67
2022-08-20T10:35:02.719Z,1.87
2022-08-20T10:37:50.138Z,1.25
2022-08-20T10:40:37.535Z,1.20
2022-08-20T10:43:24.922Z,2.70
2022-08-20T10:46:12.568Z,1.40
2022-08-20T10:48:59.891Z,2.30
2022-08-20T10:51:47.294Z,1.45
2022-08-20T10:54:34.624Z,2.70
2022-08-20T10:57:28.369Z,1.82
2022-08-20T11:00:17.883Z,1.12
2022-08-20T11:03:05.624Z,1.85
2022-08-20T11:05:52.895Z,2.22
2022-08-20T11:08:40.337Z,2.10
2022-08-20T11:11:27.591Z,3.40
2022-08-20T11:14:15.099Z,12.58
2022-08-20T11:17:03.641Z,29.32
2022-08-20T11:19:51.289Z,88.22
2022-08-20T11:22:38.696Z,6.30
2022-08-20T11:25:26.659Z,1.20
2022-08-20T11:28:14.813Z,1.32
2022-08-20T11:31:02.895Z,1.10
2022-08-20T11:33:49.881Z,1.75
2022-08-20T11:36:37.828Z,4.45
2022-08-20T11:39:25.660Z,4.53
2022-08-20T11:42:13.258Z,0.95
2022-08-20T11:45:00.551Z,1.60
2022-08-20T11:47:48.390Z,0.85
2022-08-20T11:50:35.542Z,1.72
2022-08-20T11:53:22.897Z,2.65
2022-08-20T11:56:10.832Z,1.17
2022-08-20T11:59:00.369Z,0.80
2022-08-20T12:02:02.730Z,0.60
2022-08-20T12:04:36.367Z,0.65
2022-08-20T12:07:26.054Z,3.42
2022-08-20T12:10:14.037Z,2.40
2022-08-20T12:13:04.515Z,0.60
2022-08-20T12:15:51.422Z,2.27
2022-08-20T12:18:39.243Z,1.22
2022-08-20T12:21:30.732Z,1.75
2022-08-20T12:24:15.658Z,2.42
2022-08-20T12:27:18.417Z,0.60
2022-08-20T12:30:09.326Z,0.60
2022-08-20T12:32:56.994Z,1.00
2022-08-20T12:35:44.316Z,1.00
2022-08-20T12:38:31.980Z,2.05
2022-08-20T12:41:19.310Z,2.15
2022-08-20T12:44:07.102Z,1.07
2022-08-20T12:47:17.486Z,0.80
2022-08-20T12:50:08.061Z,1.95
2022-08-20T12:52:55.524Z,3.33
2022-08-20T12:55:43.366Z,1.20
2022-08-20T12:58:30.619Z,6.65
2022-08-20T13:01:18.267Z,1.32
2022-08-20T13:04:05.823Z,1.52
2022-08-20T13:06:53.330Z,3.25
2022-08-20T13:09:43.193Z,1.95
2022-08-20T13:12:31.023Z,1.82
2022-08-20T13:15:19.449Z,2.08
2022-08-20T13:18:08.224Z,6.65
2022-08-20T13:20:55.726Z,1.72
2022-08-20T13:23:43.449Z,2.70
2022-08-20T13:26:30.862Z,3.65
2022-08-20T13:29:19.622Z,4.37
2022-08-20T13:32:08.645Z,4.80
2022-08-20T13:34:56.297Z,4.17
2022-08-20T13:37:44.337Z,3.95
2022-08-20T13:40:32.264Z,2.02
2022-08-20T13:43:20.079Z,2.67
2022-08-20T13:46:07.324Z,11.22
2022-08-20T13:48:54.927Z,2.50
2022-08-20T13:51:42.505Z,2.35
2022-08-20T13:54:30.597Z,2.80
2022-08-20T13:57:20.293Z,2.67
2022-08-20T14:00:13.675Z,2.50
2022-08-20T14:03:03.120Z,6.50
2022-08-20T14:05:50.366Z,2.33
2022-08-20T14:08:38.100Z,2.98
2022-08-20T14:11:28.430Z,3.30
2022-08-20T14:14:16.126Z,2.65
2022-08-20T14:17:29.489Z,5.25
2022-08-20T14:20:19.640Z,3.35
2022-08-20T14:23:06.770Z,3.05
2022-08-20T14:25:54.302Z,2.90
2022-08-20T14:28:42.020Z,3.30
2022-08-20T14:31:29.363Z,2.08
2022-08-20T14:34:16.989Z,3.42
2022-08-20T14:37:21.299Z,2.95
2022-08-20T14:40:12.048Z,4.55
2022-08-20T14:42:59.732Z,2.60
2022-08-20T14:45:47.326Z,3.30
2022-08-20T14:48:34.905Z,2.02
2022-08-20T14:51:22.357Z,4.70
2022-08-20T14:54:09.582Z,3.85
2022-08-20T14:57:02.184Z,2.62
2022-08-20T14:59:49.220Z,2.27
2022-08-20T15:02:36.883Z,4.55
2022-08-20T15:05:24.390Z,2.12
2022-08-20T15:08:12.091Z,2.87
2022-08-20T15:11:00.495Z,2.27
2022-08-20T15:13:47.793Z,4.08
2022-08-20T15:16:36.035Z,2.95
2022-08-20T15:19:23.595Z,5.62
2022-08-20T15:22:11.094Z,4.55
2022-08-20T15:24:58.762Z,2.60
2022-08-20T15:27:46.864Z,3.02
2022-08-20T15:30:34.355Z,4.28
2022-08-20T15:33:21.903Z,5.15
2022-08-20T15:36:11.036Z,4.70
2022-08-20T15:38:58.463Z,3.70
2022-08-20T15:41:45.977Z,3.02
2022-08-20T15:44:34.042Z,28.30
2022-08-20T15:47:27.383Z,4.17
2022-08-20T15:50:17.818Z,7.70
2022-08-20T15:53:08.596Z,3.08
2022-08-20T15:56:02.305Z,2.77
2022-08-20T15:58:58.908Z,3.70
2022-08-20T16:04:46.044Z,2.80
2022-08-20T16:07:48.468Z,3.67
2022-08-20T16:10:44.597Z,3.95
2022-08-20T16:13:40.500Z,2.75
2022-08-20T16:16:33.756Z,5.67
2022-08-20T16:19:26.967Z,7.72
2022-08-20T16:22:17.578Z,3.58
2022-08-20T16:25:05.852Z,3.40
2022-08-20T16:28:04.913Z,2.83
2022-08-20T16:30:55.404Z,2.80
2022-08-20T16:34:32.281Z,4.05
2022-08-20T16:37:32.493Z,3.65
2022-08-20T16:40:31.739Z,5.47
2022-08-20T16:43:31.144Z,4.83
2022-08-20T16:46:24.256Z,2.70
2022-08-20T16:49:14.349Z,8.08
2022-08-20T16:52:02.284Z,4.80
2022-08-20T16:54:49.499Z,2.87
2022-08-20T16:57:36.730Z,5.40
2022-08-20T17:00:32.263Z,3.55
2022-08-20T17:03:31.734Z,5.83
2022-08-20T17:06:18.248Z,3.85
2022-08-20T17:09:11.632Z,3.62
2022-08-20T17:12:14.381Z,5.33
2022-08-20T17:15:02.891Z,3.70
2022-08-20T17:17:50.225Z,5.33
2022-08-20T17:20:40.438Z,3.50
2022-08-20T17:23:28.382Z,4.58
2022-08-20T17:26:27.929Z,7.70
2022-08-20T17:29:21.222Z,5.35
2022-08-20T17:32:28.909Z,6.17
2022-08-20T17:35:23.401Z,3.87
2022-08-20T17:38:29.981Z,5.62
2022-08-20T17:41:26.686Z,4.95
2022-08-20T17:47:15.131Z,3.98
2022-08-20T17:50:05.228Z,5.22
2022-08-20T17:52:55.992Z,7.33
2022-08-20T17:55:44.776Z,10.78
2022-08-20T17:58:41.041Z,7.70
2022-08-20T18:01:30.158Z,6.22
2022-08-20T18:04:17.398Z,8.35
2022-08-20T18:07:13.147Z,5.55
2022-08-20T18:10:17.220Z,8.05
2022-08-20T18:13:16.692Z,6.25
2022-08-20T18:16:06.399Z,5.90
2022-08-20T18:19:12.062Z,5.83
2022-08-20T18:22:14.668Z,6.80
2022-08-20T18:25:34.419Z,8.78
2022-08-20T18:28:25.073Z,8.10
2022-08-20T18:31:24.696Z,7.60
2022-08-20T18:34:18.007Z,5.85
2022-08-20T18:37:13.382Z,7.25
2022-08-20T18:40:06.641Z,6.40
2022-08-20T18:42:55.169Z,9.33
2022-08-20T18:45:44.066Z,10.13
2022-08-20T18:48:31.562Z,9.55
2022-08-20T18:51:22.139Z,11.03
2022-08-20T18:54:12.364Z,7.25
2022-08-20T18:57:07.451Z,7.47
2022-08-20T19:00:16.497Z,13.88
2022-08-20T19:03:13.231Z,7.60
2022-08-20T19:09:04.033Z,7.92
2022-08-20T19:12:22.025Z,11.75
2022-08-20T19:15:12.953Z,7.87
2022-08-20T19:18:08.793Z,7.53
2022-08-20T19:20:58.295Z,11.73
2022-08-20T19:23:48.844Z,11.25
2022-08-20T19:26:54.568Z,10.03
2022-08-20T19:29:44.931Z,10.82
2022-08-20T19:32:35.026Z,10.70
2022-08-20T19:35:24.099Z,12.47
2022-08-20T19:38:16.873Z,10.13
2022-08-20T19:41:11.627Z,9.75
2022-08-20T19:44:02.203Z,11.10
2022-08-20T19:46:50.408Z,11.18
2022-08-20T19:49:43.763Z,11.10
2022-08-20T19:52:51.099Z,8.63
2022-08-20T19:55:40.781Z,10.48
2022-08-20T19:58:29.296Z,11.83
2022-08-20T20:01:21.664Z,12.50
2022-08-20T20:04:12.346Z,9.20
2022-08-20T20:06:59.975Z,8.25
2022-08-20T20:09:51.311Z,12.10
2022-08-20T20:12:40.387Z,9.10
2022-08-20T20:15:27.629Z,11.12
2022-08-20T20:18:15.323Z,12.58
2022-08-20T20:21:23.585Z,10.95
2022-08-20T20:24:13.559Z,8.80
2022-08-20T20:27:01.571Z,9.85
2022-08-20T20:29:51.824Z,10.60
2022-08-20T20:32:48.643Z,11.33
2022-08-20T20:35:37.911Z,14.15
2022-08-20T20:38:28.489Z,9.35
2022-08-20T20:41:25.227Z,10.08
2022-08-20T20:44:28.347Z,12.35
2022-08-20T20:47:27.667Z,8.23
2022-08-20T20:50:16.545Z,10.08
2022-08-20T20:53:04.562Z,10.18
2022-08-20T20:55:57.737Z,9.53
2022-08-20T20:58:53.732Z,12.07
2022-08-20T21:01:48.200Z,12.23
2022-08-20T21:04:25.395Z,7.85
2022-08-20T21:07:15.771Z,10.05
2022-08-20T21:10:03.944Z,8.95
2022-08-20T21:12:53.375Z,8.13
2022-08-20T21:15:40.868Z,10.20
2022-08-20T21:18:28.144Z,8.20
2022-08-20T21:21:16.047Z,11.43
2022-08-20T21:24:04.121Z,9.33
2022-08-20T21:26:52.627Z,9.33
2022-08-20T21:29:40.037Z,12.33
2022-08-20T21:32:27.444Z,6.30
2022-08-20T21:35:15.592Z,12.37
2022-08-20T21:38:03.049Z,14.13
2022-08-20T21:40:50.286Z,14.65
2022-08-20T21:43:37.708Z,9.35
2022-08-20T21:46:25.927Z,10.05
2022-08-20T21:49:14.891Z,14.65
2022-08-20T21:52:02.264Z,12.73
2022-08-20T21:54:49.654Z,12.47
2022-08-20T21:57:37.932Z,7.17
2022-08-20T22:00:45.105Z,12.47
2022-08-20T22:03:38.604Z,9.63
2022-08-20T22:06:27.149Z,11.97
2022-08-20T22:09:15.468Z,8.10
2022-08-20T22:12:04.885Z,10.45
2022-08-20T22:14:52.243Z,10.38
2022-08-20T22:17:39.768Z,10.63
2022-08-20T22:20:26.775Z,9.78
2022-08-20T22:23:14.142Z,9.88
2022-08-20T22:26:01.932Z,12.28
2022-08-20T22:28:51.277Z,11.35
2022-08-20T22:31:41.374Z,12.47
2022-08-20T22:34:31.341Z,14.43
2022-08-20T22:37:18.749Z,13.30
2022-08-20T22:40:07.568Z,11.05
2022-08-20T22:42:55.189Z,8.15
2022-08-20T22:45:44.801Z,14.73
2022-08-20T22:48:33.872Z,10.43
2022-08-20T22:51:30.434Z,8.20
2022-08-20T22:54:21.222Z,9.83
2022-08-20T22:57:08.740Z,12.70
2022-08-20T22:59:56.628Z,13.18
2022-08-20T23:02:46.380Z,9.88
2022-08-20T23:05:36.394Z,8.60
2022-08-20T23:08:23.612Z,12.53
2022-08-20T23:11:12.974Z,10.85
2022-08-20T23:14:00.318Z,11.78
2022-08-20T23:16:50.141Z,10.18
2022-08-20T23:19:39.025Z,16.10
2022-08-20T23:22:26.604Z,13.53
2022-08-20T23:25:16.312Z,10.45
2022-08-20T23:28:04.391Z,13.83
2022-08-20T23:30:52.530Z,12.80
2022-08-20T23:33:42.972Z,11.18
2022-08-20T23:36:28.641Z,15.35
2022-08-20T23:39:16.171Z,18.12
2022-08-20T23:42:04.505Z,12.70
2022-08-20T23:44:52.067Z,13.62
2022-08-20T23:47:39.449Z,11.57
2022-08-20T23:50:29.197Z,15.10
2022-08-20T23:53:16.940Z,12.33
2022-08-20T23:56:05.607Z,14.05
2022-08-20T23:58:53.093Z,17.60
